createdAt,value
2022-11-24T00:00:03.449Z,967.92
2022-11-24T00:01:03.439Z,967.87
2022-11-24T00:02:03.721Z,967.84
2022-11-24T00:03:03.765Z,967.72
2022-11-24T00:04:03.412Z,967.75
2022-11-24T00:05:03.426Z,967.75
2022-11-24T00:06:03.414Z,967.89
2022-11-24T00:07:03.358Z,967.83
2022-11-24T00:08:03.371Z,967.81
2022-11-24T00:09:03.245Z,967.86
2022-11-24T00:10:03.236Z,967.86
2022-11-24T00:11:03.263Z,967.81
2022-11-24T00:12:03.250Z,967.89
2022-11-24T00:13:03.199Z,967.80
2022-11-24T00:14:03.163Z,967.94
2022-11-24T00:15:03.259Z,967.80
2022-11-24T00:16:03.370Z,968.11
2022-11-24T00:17:03.279Z,968.06
2022-11-24T00:18:03.089Z,967.97
2022-11-24T00:19:03.021Z,968.06
2022-11-24T00:20:02.895Z,968.08
2022-11-24T00:21:03.851Z,968.08
2022-11-24T00:22:03.845Z,968.08
2022-11-24T00:23:03.781Z,968.19
2022-11-24T00:24:03.823Z,968.17
2022-11-24T00:25:02.860Z,967.97
2022-11-24T00:26:03.290Z,968.03
2022-11-24T00:27:03.820Z,968.08
2022-11-24T00:28:03.819Z,967.97
2022-11-24T00:29:03.840Z,968.08
2022-11-24T00:30:03.779Z,968.03
2022-11-24T00:31:04.079Z,968.05
2022-11-24T00:32:03.859Z,968.08
2022-11-24T00:33:02.895Z,968.08
2022-11-24T00:34:03.000Z,968.00
2022-11-24T00:35:02.907Z,968.02
2022-11-24T00:36:02.885Z,968.05
2022-11-24T00:37:02.853Z,968.02
2022-11-24T00:38:02.908Z,968.11
2022-11-24T00:39:03.835Z,968.05
2022-11-24T00:40:03.725Z,968.16
2022-11-24T00:41:03.857Z,968.22
2022-11-24T00:42:03.753Z,968.22
2022-11-24T00:43:03.801Z,968.16
2022-11-24T00:44:03.782Z,968.14
2022-11-24T00:45:14.361Z,968.16
2022-11-24T00:46:04.105Z,968.16
2022-11-24T00:47:04.045Z,968.16
2022-11-24T00:48:03.677Z,968.22
2022-11-24T00:49:03.782Z,968.30
2022-11-24T00:50:03.040Z,968.25
2022-11-24T00:51:03.077Z,968.25
2022-11-24T00:52:03.074Z,968.33
2022-11-24T00:53:03.813Z,968.30
2022-11-24T00:54:03.727Z,968.39
2022-11-24T00:55:03.723Z,968.41
2022-11-24T00:56:03.681Z,968.39
2022-11-24T00:57:03.814Z,968.41
2022-11-24T00:58:03.933Z,968.33
2022-11-24T00:59:02.840Z,968.27
2022-11-24T01:00:03.874Z,968.33
2022-11-24T01:01:03.941Z,968.33
2022-11-24T01:02:03.911Z,968.36
2022-11-24T01:03:03.888Z,968.27
2022-11-24T01:04:03.695Z,968.27
2022-11-24T01:05:03.622Z,968.47
2022-11-24T01:06:03.576Z,968.44
2022-11-24T01:07:03.562Z,968.38
2022-11-24T01:08:03.584Z,968.44
2022-11-24T01:09:03.432Z,968.50
2022-11-24T01:10:03.610Z,968.50
2022-11-24T01:11:03.676Z,968.41
2022-11-24T01:12:03.706Z,968.44
2022-11-24T01:13:03.797Z,968.33
2022-11-24T01:14:03.802Z,968.63
2022-11-24T01:15:03.639Z,968.55
2022-11-24T01:16:03.764Z,968.41
2022-11-24T01:17:08.708Z,968.46
2022-11-24T01:18:03.605Z,968.55
2022-11-24T01:19:03.448Z,968.66
2022-11-24T01:20:03.430Z,968.60
2022-11-24T01:21:10.353Z,968.55
2022-11-24T01:22:03.428Z,968.57
2022-11-24T01:23:03.385Z,968.60
2022-11-24T01:24:03.405Z,968.76
2022-11-24T01:25:03.389Z,968.76
2022-11-24T01:26:03.449Z,968.60
2022-11-24T01:27:03.376Z,968.71
2022-11-24T01:28:03.354Z,968.65
2022-11-24T01:29:03.388Z,968.68
2022-11-24T01:30:03.332Z,968.68
2022-11-24T01:31:03.578Z,968.68
2022-11-24T01:32:03.421Z,968.73
2022-11-24T01:33:03.443Z,968.68
2022-11-24T01:34:03.584Z,968.75
2022-11-24T01:35:03.516Z,968.65
2022-11-24T01:36:03.480Z,968.78
2022-11-24T01:37:03.452Z,968.89
2022-11-24T01:38:03.476Z,968.71
2022-11-24T01:39:03.497Z,968.81
2022-11-24T01:40:03.554Z,968.72
2022-11-24T01:41:03.581Z,968.89
2022-11-24T01:42:03.425Z,968.78
2022-11-24T01:43:03.510Z,968.78
2022-11-24T01:44:03.389Z,968.86
2022-11-24T01:45:03.318Z,968.78
2022-11-24T01:46:03.174Z,968.92
2022-11-24T01:47:03.267Z,968.89
2022-11-24T01:48:03.052Z,968.94
2022-11-24T01:49:02.939Z,968.92
2022-11-24T01:50:03.058Z,968.97
2022-11-24T01:51:03.034Z,968.83
2022-11-24T01:52:03.045Z,968.86
2022-11-24T01:53:03.091Z,968.77
2022-11-24T01:54:03.213Z,969.00
2022-11-24T01:55:03.246Z,969.08
2022-11-24T01:56:03.200Z,969.00
2022-11-24T01:57:03.261Z,968.94
2022-11-24T01:58:03.203Z,969.00
2022-11-24T01:59:03.183Z,969.00
2022-11-24T02:00:03.173Z,968.89
2022-11-24T02:01:03.267Z,968.89
2022-11-24T02:02:03.196Z,969.05
2022-11-24T02:03:03.344Z,968.86
2022-11-24T02:04:03.131Z,969.00
2022-11-24T02:05:03.166Z,969.03
2022-11-24T02:06:03.063Z,969.03
2022-11-24T02:07:03.057Z,969.05
2022-11-24T02:08:03.001Z,969.00
2022-11-24T02:09:02.866Z,969.11
2022-11-24T02:10:02.858Z,969.20
2022-11-24T02:11:02.910Z,969.17
2022-11-24T02:12:03.784Z,969.20
2022-11-24T02:13:03.869Z,969.08
2022-11-24T02:14:03.841Z,969.00
2022-11-24T02:15:03.859Z,969.17
2022-11-24T02:16:04.052Z,969.25
2022-11-24T02:17:03.811Z,969.22
2022-11-24T02:18:03.847Z,969.17
2022-11-24T02:19:03.727Z,969.17
2022-11-24T02:20:03.790Z,969.11
2022-11-24T02:21:03.718Z,969.14
2022-11-24T02:23:03.840Z,969.22
2022-11-24T02:24:02.861Z,969.31
2022-11-24T02:25:03.844Z,969.39
2022-11-24T02:26:03.804Z,969.06
2022-11-24T02:27:03.756Z,969.34
2022-11-24T02:28:03.781Z,969.22
2022-11-24T02:29:03.835Z,969.36
2022-11-24T02:30:03.770Z,969.36
2022-11-24T02:31:03.784Z,969.34
2022-11-24T02:32:03.624Z,969.28
2022-11-24T02:33:03.532Z,969.28
2022-11-24T02:34:03.613Z,969.48
2022-11-24T02:35:03.617Z,969.28
2022-11-24T02:36:03.632Z,969.34
2022-11-24T02:37:03.691Z,969.28
2022-11-24T02:38:03.584Z,969.25
2022-11-24T02:39:03.543Z,969.25
2022-11-24T02:40:03.535Z,969.39
2022-11-24T02:41:03.449Z,969.25
2022-11-24T02:42:03.545Z,969.14
2022-11-24T02:43:03.510Z,969.25
2022-11-24T02:44:03.495Z,969.28
2022-11-24T02:45:03.579Z,969.17
2022-11-24T02:46:03.723Z,969.33
2022-11-24T02:47:03.569Z,969.31
2022-11-24T02:48:03.480Z,969.28
2022-11-24T02:49:03.420Z,969.25
2022-11-24T02:50:03.349Z,969.31
2022-11-24T02:51:03.316Z,969.31
2022-11-24T02:52:03.325Z,969.39
2022-11-24T02:53:03.367Z,969.42
2022-11-24T02:54:03.288Z,969.28
2022-11-24T02:55:03.232Z,969.25
2022-11-24T02:56:03.194Z,969.25
2022-11-24T02:57:03.154Z,969.33
2022-11-24T02:58:03.236Z,969.28
2022-11-24T02:59:03.256Z,969.42
2022-11-24T03:00:03.248Z,969.28
2022-11-24T03:01:03.312Z,969.28
2022-11-24T03:02:03.529Z,969.31
2022-11-24T03:03:03.295Z,969.30
2022-11-24T03:04:03.296Z,969.25
2022-11-24T03:05:03.278Z,969.30
2022-11-24T03:06:03.221Z,969.30
2022-11-24T03:07:03.163Z,969.36
2022-11-24T03:08:03.268Z,969.30
2022-11-24T03:09:03.247Z,969.30
2022-11-24T03:10:03.235Z,969.22
2022-11-24T03:11:03.288Z,969.22
2022-11-24T03:12:03.237Z,969.25
2022-11-24T03:13:03.203Z,969.16
2022-11-24T03:14:03.176Z,969.25
2022-11-24T03:15:03.137Z,969.28
2022-11-24T03:16:03.245Z,969.16
2022-11-24T03:17:03.124Z,969.19
2022-11-24T03:18:03.125Z,969.19
2022-11-24T03:19:03.220Z,969.33
2022-11-24T03:20:05.448Z,969.25
2022-11-24T03:21:03.147Z,969.33
2022-11-24T03:22:03.102Z,969.30
2022-11-24T03:23:03.059Z,969.28
2022-11-24T03:24:03.141Z,969.11
2022-11-24T03:25:03.137Z,969.33
2022-11-24T03:26:03.069Z,969.33
2022-11-24T03:27:03.033Z,969.20
2022-11-24T03:28:02.864Z,969.39
2022-11-24T03:29:02.958Z,969.39
2022-11-24T03:30:02.864Z,969.50
2022-11-24T03:31:03.976Z,969.39
2022-11-24T03:32:03.894Z,969.39
2022-11-24T03:33:03.832Z,969.36
2022-11-24T03:34:03.716Z,969.34
2022-11-24T03:35:03.702Z,969.39
2022-11-24T03:36:03.709Z,969.48
2022-11-24T03:37:03.764Z,969.31
2022-11-24T03:38:03.707Z,969.39
2022-11-24T03:39:03.323Z,969.31
2022-11-24T03:40:03.303Z,969.42
2022-11-24T03:41:03.290Z,969.56
2022-11-24T03:42:03.275Z,969.39
2022-11-24T03:43:03.311Z,969.45
2022-11-24T03:44:03.346Z,969.42
2022-11-24T03:45:45.245Z,969.51
2022-11-24T03:46:03.713Z,969.50
2022-11-24T03:47:03.577Z,969.59
2022-11-24T03:48:03.660Z,969.65
2022-11-24T03:49:03.538Z,969.67
2022-11-24T03:50:03.564Z,969.62
2022-11-24T03:51:03.555Z,969.53
2022-11-24T03:52:08.533Z,969.67
2022-11-24T03:53:03.371Z,969.65
2022-11-24T03:54:03.468Z,969.70
2022-11-24T03:55:03.513Z,969.65
2022-11-24T03:56:03.518Z,969.59
2022-11-24T03:57:03.532Z,969.73
2022-11-24T03:58:03.613Z,969.65
2022-11-24T03:59:03.664Z,969.59
2022-11-24T04:00:03.732Z,969.54
2022-11-24T04:01:03.680Z,969.65
2022-11-24T04:02:03.765Z,969.62
2022-11-24T04:03:03.890Z,969.62
2022-11-24T04:04:03.658Z,969.71
2022-11-24T04:05:03.674Z,969.62
2022-11-24T04:06:03.639Z,969.68
2022-11-24T04:07:03.641Z,969.63
2022-11-24T04:08:03.564Z,969.63
2022-11-24T04:09:03.637Z,969.74
2022-11-24T04:10:03.628Z,969.74
2022-11-24T04:11:03.674Z,969.66
2022-11-24T04:12:03.616Z,969.85
2022-11-24T04:13:03.544Z,969.71
2022-11-24T04:14:03.871Z,969.80
2022-11-24T04:15:03.413Z,969.83
2022-11-24T04:16:03.577Z,969.86
2022-11-24T04:17:03.527Z,969.66
2022-11-24T04:18:03.636Z,969.77
2022-11-24T04:19:03.562Z,969.75
2022-11-24T04:20:03.646Z,969.86
2022-11-24T04:21:03.683Z,969.80
2022-11-24T04:22:03.776Z,969.92
2022-11-24T04:23:03.759Z,969.81
2022-11-24T04:24:03.761Z,969.92
2022-11-24T04:25:03.743Z,969.84
2022-11-24T04:26:03.717Z,969.86
2022-11-24T04:27:03.606Z,969.84
2022-11-24T04:28:03.704Z,969.81
2022-11-24T04:29:03.700Z,969.84
2022-11-24T04:30:03.677Z,970.08
2022-11-24T04:31:03.805Z,969.87
2022-11-24T04:32:03.671Z,970.00
2022-11-24T04:33:03.589Z,969.87
2022-11-24T04:34:03.607Z,969.97
2022-11-24T04:35:03.533Z,969.90
2022-11-24T04:36:03.486Z,970.08
2022-11-24T04:37:03.507Z,970.09
2022-11-24T04:38:03.500Z,970.17
2022-11-24T04:39:28.536Z,970.06
2022-11-24T04:40:03.583Z,970.06
2022-11-24T04:41:03.487Z,969.98
2022-11-24T04:42:03.418Z,970.12
2022-11-24T04:43:03.388Z,970.09
2022-11-24T04:44:03.537Z,970.09
2022-11-24T04:45:03.395Z,970.14
2022-11-24T04:46:03.409Z,970.09
2022-11-24T04:47:03.378Z,970.17
2022-11-24T04:48:03.399Z,970.14
2022-11-24T04:49:03.414Z,970.20
2022-11-24T04:50:03.461Z,970.12
2022-11-24T04:51:03.435Z,970.37
2022-11-24T04:52:03.395Z,970.17
2022-11-24T04:53:03.287Z,970.26
2022-11-24T04:54:03.612Z,970.34
2022-11-24T04:55:03.526Z,970.34
2022-11-24T04:56:03.458Z,970.28
2022-11-24T04:57:03.457Z,970.29
2022-11-24T04:58:03.486Z,970.23
2022-11-24T04:59:08.789Z,970.31
2022-11-24T05:00:03.593Z,970.26
2022-11-24T05:01:03.613Z,970.23
2022-11-24T05:02:03.677Z,970.37
2022-11-24T05:03:03.473Z,970.37
2022-11-24T05:04:03.577Z,970.37
2022-11-24T05:05:03.420Z,970.37
2022-11-24T05:06:03.436Z,970.42
2022-11-24T05:07:03.457Z,970.34
2022-11-24T05:08:03.612Z,970.47
2022-11-24T05:09:03.379Z,970.40
2022-11-24T05:10:03.450Z,970.44
2022-11-24T05:11:03.506Z,970.44
2022-11-24T05:12:03.525Z,970.40
2022-11-24T05:13:03.660Z,970.50
2022-11-24T05:14:03.628Z,970.42
2022-11-24T05:15:03.714Z,970.45
2022-11-24T05:16:03.686Z,970.47
2022-11-24T05:17:03.631Z,970.45
2022-11-24T05:18:03.512Z,970.23
2022-11-24T05:19:03.534Z,970.40
2022-11-24T05:20:03.613Z,970.35
2022-11-24T05:21:03.525Z,970.45
2022-11-24T05:22:03.497Z,970.48
2022-11-24T05:23:03.577Z,970.45
2022-11-24T05:24:03.506Z,970.45
2022-11-24T05:25:03.816Z,970.42
2022-11-24T05:26:03.755Z,970.45
2022-11-24T05:27:03.861Z,970.56
2022-11-24T05:28:03.837Z,970.38
2022-11-24T05:29:03.751Z,970.54
2022-11-24T05:30:03.799Z,970.54
2022-11-24T05:31:04.004Z,970.42
2022-11-24T05:32:03.728Z,970.41
2022-11-24T05:33:03.683Z,970.54
2022-11-24T05:34:03.601Z,970.65
2022-11-24T05:35:03.642Z,970.51
2022-11-24T05:36:03.663Z,970.62
2022-11-24T05:37:03.604Z,970.62
2022-11-24T05:38:03.592Z,970.59
2022-11-24T05:39:03.570Z,970.68
2022-11-24T05:40:03.533Z,970.48
2022-11-24T05:41:03.426Z,970.68
2022-11-24T05:42:03.476Z,970.68
2022-11-24T05:43:03.457Z,970.59
2022-11-24T05:44:03.452Z,970.54
2022-11-24T05:45:03.393Z,970.56
2022-11-24T05:46:03.297Z,970.48
2022-11-24T05:47:03.342Z,970.65
2022-11-24T05:48:03.154Z,970.65
2022-11-24T05:49:03.082Z,970.65
2022-11-24T05:50:03.109Z,970.59
2022-11-24T05:51:09.587Z,970.68
2022-11-24T05:52:03.042Z,970.62
2022-11-24T05:53:03.001Z,970.65
2022-11-24T05:54:02.946Z,970.67
2022-11-24T05:55:03.869Z,970.65
2022-11-24T05:56:03.742Z,970.79
2022-11-24T05:57:03.801Z,970.76
2022-11-24T05:58:03.879Z,970.62
2022-11-24T05:59:10.193Z,970.65
2022-11-24T06:00:03.764Z,970.76
2022-11-24T06:01:03.772Z,970.62
2022-11-24T06:02:04.183Z,970.62
2022-11-24T06:03:03.991Z,970.65
2022-11-24T06:04:03.712Z,970.59
2022-11-24T06:05:03.685Z,970.67
2022-11-24T06:06:03.718Z,970.56
2022-11-24T06:07:03.662Z,970.59
2022-11-24T06:08:03.598Z,970.90
2022-11-24T06:09:03.532Z,970.70
2022-11-24T06:10:03.433Z,970.65
2022-11-24T06:11:03.413Z,970.79
2022-11-24T06:12:03.500Z,970.70
2022-11-24T06:13:03.731Z,970.76
2022-11-24T06:14:11.050Z,970.79
2022-11-24T06:15:03.206Z,970.90
2022-11-24T06:16:03.323Z,970.96
2022-11-24T06:17:03.206Z,970.88
2022-11-24T06:18:03.187Z,970.82
2022-11-24T06:19:03.204Z,971.02
2022-11-24T06:20:03.116Z,970.88
2022-11-24T06:21:12.111Z,970.90
2022-11-24T06:22:03.097Z,970.99
2022-11-24T06:23:03.055Z,970.99
2022-11-24T06:24:03.053Z,970.91
2022-11-24T06:25:02.885Z,970.96
2022-11-24T06:26:03.405Z,970.93
2022-11-24T06:27:03.368Z,970.85
2022-11-24T06:28:03.240Z,970.88
2022-11-24T06:29:03.265Z,970.96
2022-11-24T06:30:03.168Z,971.05
2022-11-24T06:31:03.176Z,971.16
2022-11-24T06:32:03.327Z,971.16
2022-11-24T06:33:03.089Z,971.08
2022-11-24T06:34:03.029Z,971.05
2022-11-24T06:35:02.951Z,971.05
2022-11-24T06:36:02.944Z,971.16
2022-11-24T06:37:02.851Z,971.27
2022-11-24T06:38:02.838Z,971.05
2022-11-24T06:39:03.796Z,971.22
2022-11-24T06:40:02.903Z,971.19
2022-11-24T06:41:02.966Z,971.16
2022-11-24T06:42:03.897Z,971.13
2022-11-24T06:43:02.932Z,971.13
2022-11-24T06:44:02.957Z,971.16
2022-11-24T06:45:09.503Z,971.10
2022-11-24T06:46:03.254Z,971.22
2022-11-24T06:47:03.134Z,971.13
2022-11-24T06:48:03.192Z,971.22
2022-11-24T06:49:03.143Z,971.27
2022-11-24T06:50:03.215Z,971.22
2022-11-24T06:51:03.213Z,971.30
2022-11-24T06:52:03.187Z,971.33
2022-11-24T06:53:03.325Z,971.33
2022-11-24T06:54:03.503Z,971.38
2022-11-24T06:55:03.465Z,971.41
2022-11-24T06:56:03.327Z,971.24
2022-11-24T06:57:03.431Z,971.27
2022-11-24T06:58:03.452Z,971.13
2022-11-24T06:59:03.326Z,971.22
2022-11-24T07:00:03.495Z,971.07
2022-11-24T07:01:03.479Z,971.13
2022-11-24T07:02:03.410Z,971.13
2022-11-24T07:03:03.291Z,971.07
2022-11-24T07:04:03.191Z,971.13
2022-11-24T07:05:03.259Z,971.24
2022-11-24T07:06:03.107Z,971.16
2022-11-24T07:07:03.118Z,971.21
2022-11-24T07:08:03.125Z,971.30
2022-11-24T07:09:02.997Z,971.27
2022-11-24T07:10:02.977Z,971.27
2022-11-24T07:11:03.314Z,971.24
2022-11-24T07:12:03.226Z,971.18
2022-11-24T07:13:03.139Z,971.24
2022-11-24T07:14:03.139Z,971.33
2022-11-24T07:15:03.173Z,971.18
2022-11-24T07:16:03.168Z,971.29
2022-11-24T07:17:03.088Z,971.35
2022-11-24T07:18:03.141Z,971.35
2022-11-24T07:19:02.991Z,971.18
2022-11-24T07:20:02.975Z,971.27
2022-11-24T07:21:03.875Z,971.27
2022-11-24T07:22:02.859Z,971.32
2022-11-24T07:23:02.901Z,971.21
2022-11-24T07:24:02.899Z,971.21
2022-11-24T07:25:03.871Z,971.13
2022-11-24T07:26:07.340Z,971.21
2022-11-24T07:27:03.720Z,971.35
2022-11-24T07:28:03.845Z,971.29
2022-11-24T07:29:03.760Z,971.27
2022-11-24T07:30:03.699Z,971.35
2022-11-24T07:31:03.695Z,971.29
2022-11-24T07:32:06.179Z,971.32
2022-11-24T07:33:03.752Z,971.32
2022-11-24T07:34:03.768Z,971.35
2022-11-24T07:35:03.689Z,971.40
2022-11-24T07:36:03.615Z,971.51
2022-11-24T07:37:03.724Z,971.43
2022-11-24T07:38:03.573Z,971.43
2022-11-24T07:39:03.540Z,971.40
2022-11-24T07:40:03.461Z,971.48
2022-11-24T07:41:03.394Z,971.51
2022-11-24T07:42:03.334Z,971.71
2022-11-24T07:43:03.290Z,971.73
2022-11-24T07:44:03.222Z,971.62
2022-11-24T07:45:03.192Z,971.62
2022-11-24T07:46:03.342Z,971.79
2022-11-24T07:47:03.123Z,971.65
2022-11-24T07:48:03.106Z,971.56
2022-11-24T07:49:03.222Z,971.65
2022-11-24T07:50:03.157Z,971.64
2022-11-24T07:51:03.128Z,971.73
2022-11-24T07:52:03.039Z,971.83
2022-11-24T07:53:03.031Z,971.81
2022-11-24T07:54:02.950Z,971.64
2022-11-24T07:55:02.848Z,971.58
2022-11-24T07:56:02.938Z,971.64
2022-11-24T07:57:03.845Z,971.78
2022-11-24T07:58:02.973Z,971.69
2022-11-24T07:59:02.980Z,971.69
2022-11-24T08:00:03.017Z,971.83
2022-11-24T08:01:02.920Z,971.74
2022-11-24T08:02:03.110Z,971.63
2022-11-24T08:03:02.995Z,971.63
2022-11-24T08:04:03.046Z,971.71
2022-11-24T08:05:03.021Z,971.74
2022-11-24T08:06:28.945Z,971.71
2022-11-24T08:07:03.085Z,971.82
2022-11-24T08:08:03.065Z,971.86
2022-11-24T08:09:02.994Z,971.76
2022-11-24T08:10:03.038Z,971.82
2022-11-24T08:11:02.900Z,971.73
2022-11-24T08:12:02.898Z,971.86
2022-11-24T08:13:03.828Z,971.81
2022-11-24T08:14:03.823Z,971.85
2022-11-24T08:15:11.268Z,971.88
2022-11-24T08:16:02.949Z,971.85
2022-11-24T08:17:03.074Z,971.75
2022-11-24T08:18:02.899Z,971.80
2022-11-24T08:19:02.904Z,971.80
2022-11-24T08:20:03.865Z,971.77
2022-11-24T08:21:03.815Z,971.82
2022-11-24T08:22:03.669Z,971.74
2022-11-24T08:23:03.670Z,971.79
2022-11-24T08:24:03.792Z,971.83
2022-11-24T08:25:03.705Z,971.86
2022-11-24T08:26:03.615Z,971.67
2022-11-24T08:27:03.502Z,971.67
2022-11-24T08:28:03.512Z,971.75
2022-11-24T08:29:03.561Z,971.75
2022-11-24T08:30:03.571Z,971.78
2022-11-24T08:31:03.570Z,971.77
2022-11-24T08:32:03.613Z,971.74
2022-11-24T08:33:03.482Z,971.77
2022-11-24T08:34:03.517Z,971.74
2022-11-24T08:35:14.663Z,971.79
2022-11-24T08:36:03.498Z,971.89
2022-11-24T08:37:03.544Z,971.73
2022-11-24T08:38:05.207Z,971.78
2022-11-24T08:39:03.460Z,971.75
2022-11-24T08:40:03.447Z,971.69
2022-11-24T08:41:03.327Z,971.80
2022-11-24T08:42:03.407Z,971.80
2022-11-24T08:43:03.436Z,971.66
2022-11-24T08:44:03.477Z,971.71
2022-11-24T08:45:21.578Z,971.82
2022-11-24T08:46:03.447Z,971.73
2022-11-24T08:47:03.201Z,971.79
2022-11-24T08:48:03.302Z,971.76
2022-11-24T08:49:03.251Z,971.91
2022-11-24T08:50:03.201Z,971.81
2022-11-24T08:51:03.194Z,971.83
2022-11-24T08:52:03.138Z,971.77
2022-11-24T08:53:03.298Z,971.74
2022-11-24T08:54:03.339Z,971.68
2022-11-24T08:55:03.333Z,971.73
2022-11-24T08:56:03.678Z,971.65
2022-11-24T08:57:03.696Z,971.81
2022-11-24T08:58:03.707Z,971.88
2022-11-24T08:59:03.868Z,971.85
2022-11-24T09:00:03.656Z,971.88
2022-11-24T09:01:03.886Z,971.93
2022-11-24T09:02:03.892Z,971.80
2022-11-24T09:03:03.721Z,971.82
2022-11-24T09:04:03.737Z,971.87
2022-11-24T09:05:03.626Z,971.89
2022-11-24T09:06:03.657Z,971.95
2022-11-24T09:07:03.572Z,971.81
2022-11-24T09:08:03.522Z,971.83
2022-11-24T09:09:03.532Z,971.91
2022-11-24T09:10:03.513Z,971.93
2022-11-24T09:11:03.386Z,972.02
2022-11-24T09:12:03.401Z,971.99
2022-11-24T09:13:03.410Z,971.93
2022-11-24T09:14:03.278Z,971.87
2022-11-24T09:15:03.331Z,971.79
2022-11-24T09:16:03.315Z,971.89
2022-11-24T09:17:03.790Z,971.98
2022-11-24T09:18:03.557Z,971.95
2022-11-24T09:19:03.549Z,972.03
2022-11-24T09:20:03.555Z,971.86
2022-11-24T09:21:03.589Z,971.92
2022-11-24T09:22:03.609Z,971.97
2022-11-24T09:23:03.523Z,971.97
2022-11-24T09:24:03.474Z,972.03
2022-11-24T09:25:03.501Z,972.14
2022-11-24T09:26:03.484Z,972.08
2022-11-24T09:27:03.440Z,971.99
2022-11-24T09:28:03.398Z,972.16
2022-11-24T09:29:03.019Z,972.08
2022-11-24T09:30:02.957Z,972.05
2022-11-24T09:31:03.059Z,972.07
2022-11-24T09:32:07.289Z,972.21
2022-11-24T09:33:03.021Z,972.13
2022-11-24T09:34:03.077Z,972.01
2022-11-24T09:35:03.020Z,971.98
2022-11-24T09:36:03.273Z,972.07
2022-11-24T09:37:03.199Z,972.12
2022-11-24T09:38:03.162Z,972.21
2022-11-24T09:39:03.139Z,972.04
2022-11-24T09:40:03.119Z,971.98
2022-11-24T09:41:03.069Z,972.03
2022-11-24T09:42:03.085Z,972.06
2022-11-24T09:43:03.099Z,971.92
2022-11-24T09:44:03.041Z,972.03
2022-11-24T09:45:02.920Z,972.06
2022-11-24T09:46:06.820Z,972.05
2022-11-24T09:47:03.983Z,972.08
2022-11-24T09:48:03.857Z,972.05
2022-11-24T09:49:03.869Z,972.02
2022-11-24T09:50:03.852Z,972.05
2022-11-24T09:51:03.888Z,971.99
2022-11-24T09:52:03.813Z,972.07
2022-11-24T09:53:03.793Z,972.16
2022-11-24T09:54:03.705Z,972.10
2022-11-24T09:55:03.781Z,971.98
2022-11-24T09:56:03.784Z,972.04
2022-11-24T09:57:03.749Z,971.98
2022-11-24T09:58:03.721Z,972.09
2022-11-24T09:59:03.715Z,972.06
2022-11-24T10:00:03.765Z,972.12
2022-11-24T10:01:03.859Z,972.31
2022-11-24T10:02:03.911Z,972.14
2022-11-24T10:03:03.785Z,972.11
2022-11-24T10:04:06.963Z,972.31
2022-11-24T10:05:03.013Z,972.36
2022-11-24T10:06:02.992Z,972.16
2022-11-24T10:07:02.915Z,972.13
2022-11-24T10:08:02.879Z,972.16
2022-11-24T10:09:02.894Z,972.33
2022-11-24T10:10:02.938Z,972.13
2022-11-24T10:11:02.979Z,972.24
2022-11-24T10:12:03.053Z,972.10
2022-11-24T10:13:03.366Z,972.21
2022-11-24T10:14:03.377Z,972.18
2022-11-24T10:15:03.410Z,972.24
2022-11-24T10:16:03.470Z,972.30
2022-11-24T10:17:03.251Z,972.24
2022-11-24T10:18:03.302Z,972.15
2022-11-24T10:19:03.406Z,972.18
2022-11-24T10:20:03.330Z,972.18
2022-11-24T10:21:03.346Z,972.32
2022-11-24T10:22:03.303Z,972.24
2022-11-24T10:23:03.219Z,972.12
2022-11-24T10:24:03.183Z,972.32
2022-11-24T10:25:03.238Z,972.21
2022-11-24T10:26:03.249Z,972.18
2022-11-24T10:27:03.408Z,972.18
2022-11-24T10:28:03.325Z,972.35
2022-11-24T10:29:03.356Z,972.27
2022-11-24T10:30:03.326Z,972.21
2022-11-24T10:31:03.497Z,972.16
2022-11-24T10:32:03.392Z,972.24
2022-11-24T10:33:03.391Z,972.21
2022-11-24T10:34:03.500Z,972.33
2022-11-24T10:35:03.547Z,972.33
2022-11-24T10:36:03.621Z,972.41
2022-11-24T10:37:03.551Z,972.33
2022-11-24T10:38:03.588Z,972.35
2022-11-24T10:39:03.542Z,972.35
2022-11-24T10:40:03.679Z,972.27
2022-11-24T10:41:03.954Z,972.35
2022-11-24T10:42:03.646Z,972.32
2022-11-24T10:43:03.635Z,972.32
2022-11-24T10:44:03.634Z,972.38
2022-11-24T10:45:03.524Z,972.29
2022-11-24T10:46:03.680Z,972.34
2022-11-24T10:47:03.570Z,972.40
2022-11-24T10:48:03.603Z,972.37
2022-11-24T10:49:03.531Z,972.20
2022-11-24T10:50:03.454Z,972.34
2022-11-24T10:51:03.536Z,972.48
2022-11-24T10:52:03.575Z,972.25
2022-11-24T10:53:03.611Z,972.44
2022-11-24T10:54:03.566Z,972.33
2022-11-24T10:55:03.550Z,972.30
2022-11-24T10:56:03.560Z,972.38
2022-11-24T10:57:03.609Z,972.38
2022-11-24T10:58:03.576Z,972.29
2022-11-24T10:59:03.418Z,972.49
2022-11-24T11:00:03.457Z,972.43
2022-11-24T11:01:03.548Z,972.35
2022-11-24T11:02:03.550Z,972.56
2022-11-24T11:03:03.587Z,972.49
2022-11-24T11:04:03.571Z,972.43
2022-11-24T11:05:03.718Z,972.48
2022-11-24T11:06:02.927Z,972.34
2022-11-24T11:07:02.938Z,972.59
2022-11-24T11:08:06.183Z,972.45
2022-11-24T11:09:03.814Z,972.58
2022-11-24T11:10:03.720Z,972.61
2022-11-24T11:11:03.658Z,972.55
2022-11-24T11:12:43.145Z,972.58
2022-11-24T11:13:03.624Z,972.47
2022-11-24T11:14:05.219Z,972.36
2022-11-24T11:15:03.664Z,972.52
2022-11-24T11:16:03.800Z,972.47
2022-11-24T11:17:03.726Z,972.55
2022-11-24T11:18:04.123Z,972.57
2022-11-24T11:19:47.169Z,972.57
2022-11-24T11:20:05.102Z,972.69
2022-11-24T11:21:02.905Z,972.69
2022-11-24T11:22:02.885Z,972.77
2022-11-24T11:23:03.175Z,972.66
2022-11-24T11:24:03.177Z,972.68
2022-11-24T11:25:04.007Z,972.63
2022-11-24T11:26:03.116Z,972.74
2022-11-24T11:27:02.996Z,972.68
2022-11-24T11:28:11.487Z,972.80
2022-11-24T11:31:22.366Z,972.74
2022-11-24T11:34:04.047Z,972.74
2022-11-24T11:34:09.325Z,972.74
2022-11-24T11:35:03.158Z,972.71
2022-11-24T11:36:03.250Z,972.80
2022-11-24T11:37:03.189Z,972.85
2022-11-24T11:38:03.140Z,972.97
2022-11-24T11:39:03.127Z,972.91
2022-11-24T11:40:03.005Z,972.85
2022-11-24T11:41:03.293Z,972.77
2022-11-24T11:42:02.994Z,972.97
2022-11-24T11:43:03.994Z,972.91
2022-11-24T11:44:03.296Z,972.97
2022-11-24T11:45:03.083Z,972.91
2022-11-24T11:46:03.249Z,973.00
2022-11-24T11:47:03.378Z,972.83
2022-11-24T11:48:03.815Z,972.86
2022-11-24T11:49:03.322Z,972.91
2022-11-24T11:50:03.297Z,972.94
2022-11-24T11:51:24.292Z,973.03
2022-11-24T11:52:03.587Z,973.09
2022-11-24T11:53:03.448Z,973.09
2022-11-24T11:54:03.515Z,973.20
2022-11-24T11:55:03.374Z,972.92
2022-11-24T11:56:03.300Z,973.03
2022-11-24T11:57:03.375Z,973.03
2022-11-24T11:58:03.256Z,973.06
2022-11-24T11:59:03.130Z,973.12
2022-11-24T12:00:03.283Z,973.17
2022-11-24T12:01:03.268Z,973.15
2022-11-24T12:02:03.391Z,973.20
2022-11-24T12:03:03.699Z,973.23
2022-11-24T12:04:03.890Z,973.23
2022-11-24T12:05:03.599Z,973.03
2022-11-24T12:06:03.238Z,973.15
2022-11-24T12:07:03.585Z,973.18
2022-11-24T12:08:11.630Z,973.21
2022-11-24T12:09:21.150Z,973.21
2022-11-24T12:10:03.359Z,973.21
2022-11-24T12:11:03.258Z,973.35
2022-11-24T12:12:03.330Z,973.09
2022-11-24T12:13:03.207Z,973.21
2022-11-24T12:14:03.248Z,973.23
2022-11-24T12:15:11.109Z,973.12
2022-11-24T12:16:03.698Z,973.15
2022-11-24T12:17:03.445Z,973.21
2022-11-24T12:18:03.377Z,973.09
2022-11-24T12:19:03.337Z,973.09
2022-11-24T12:20:03.254Z,973.32
2022-11-24T12:21:03.242Z,973.32
2022-11-24T12:22:03.511Z,973.32
2022-11-24T12:23:03.541Z,973.40
2022-11-24T12:24:03.314Z,973.37
2022-11-24T12:25:03.496Z,973.29
2022-11-24T12:26:03.314Z,973.20
2022-11-24T12:27:03.329Z,973.31
2022-11-24T12:28:03.443Z,973.37
2022-11-24T12:29:03.385Z,973.34
2022-11-24T12:30:03.632Z,973.43
2022-11-24T12:31:03.667Z,973.40
2022-11-24T12:32:03.500Z,973.40